createdAt,value
2019-02-17T00:00:27.876Z,1019.16
2019-02-17T00:01:27.839Z,1019.14
2019-02-17T00:02:27.824Z,1019.11
2019-02-17T00:03:27.792Z,1019.15
2019-02-17T00:04:27.775Z,1019.11
2019-02-17T00:05:27.745Z,1019.14
2019-02-17T00:06:27.729Z,1019.10
2019-02-17T00:07:27.705Z,1019.10
2019-02-17T00:08:27.678Z,1019.09
2019-02-17T00:09:27.649Z,1019.10
2019-02-17T00:10:27.627Z,1019.11
2019-02-17T00:11:27.611Z,1019.11
2019-02-17T00:12:27.581Z,1019.13
2019-02-17T00:13:27.556Z,1019.12
2019-02-17T00:14:27.539Z,1019.10
2019-02-17T00:15:27.510Z,1019.09
2019-02-17T00:16:27.487Z,1019.08
2019-02-17T00:17:27.469Z,1019.10
2019-02-17T00:18:27.436Z,1019.12
2019-02-17T00:19:27.419Z,1019.12
2019-02-17T00:20:27.391Z,1019.13
2019-02-17T00:21:27.365Z,1019.14
2019-02-17T00:22:27.342Z,1019.12
2019-02-17T00:23:27.318Z,1019.12
2019-02-17T00:24:27.296Z,1019.13
2019-02-17T00:25:27.271Z,1019.13
2019-02-17T00:26:27.246Z,1019.09
2019-02-17T00:27:27.224Z,1019.11
2019-02-17T00:28:27.200Z,1019.09
2019-02-17T00:29:27.183Z,1019.01
2019-02-17T00:30:27.165Z,1018.98
2019-02-17T00:31:27.128Z,1019.03
2019-02-17T00:32:27.105Z,1019.02
2019-02-17T00:33:27.085Z,1019.03
2019-02-17T00:34:27.065Z,1019.04
2019-02-17T00:35:27.038Z,1018.98
2019-02-17T00:36:27.009Z,1018.99
2019-02-17T00:37:26.984Z,1018.97
2019-02-17T00:38:26.979Z,1018.97
2019-02-17T00:39:26.948Z,1018.96
2019-02-17T00:40:26.929Z,1018.98
2019-02-17T00:41:26.898Z,1019.00
2019-02-17T00:42:26.884Z,1018.97
2019-02-17T00:43:26.856Z,1019.03
2019-02-17T00:44:26.822Z,1019.01
2019-02-17T00:45:26.796Z,1018.96
2019-02-17T00:46:26.769Z,1018.96
2019-02-17T00:47:26.746Z,1018.95
2019-02-17T00:48:26.723Z,1018.99
2019-02-17T00:49:26.694Z,1018.99
2019-02-17T00:50:26.673Z,1018.98
2019-02-17T00:51:26.657Z,1019.01
2019-02-17T00:52:26.632Z,1019.03
2019-02-17T00:53:26.608Z,1019.03
2019-02-17T00:54:26.591Z,1019.04
2019-02-17T00:55:26.584Z,1018.95
2019-02-17T00:56:26.532Z,1018.93
2019-02-17T00:57:26.527Z,1018.97
2019-02-17T00:58:26.487Z,1018.95
2019-02-17T00:59:26.456Z,1018.94
2019-02-17T01:00:26.440Z,1018.96
2019-02-17T01:01:26.412Z,1018.94
2019-02-17T01:02:26.396Z,1018.96
2019-02-17T01:03:26.364Z,1018.92
2019-02-17T01:04:26.343Z,1018.98
2019-02-17T01:05:26.324Z,1018.93
2019-02-17T01:06:26.302Z,1018.95
2019-02-17T01:07:26.267Z,1018.93
2019-02-17T01:08:26.247Z,1018.92
2019-02-17T01:09:26.217Z,1018.92
2019-02-17T01:10:26.193Z,1018.95
2019-02-17T01:11:26.174Z,1018.98
2019-02-17T01:12:26.145Z,1018.95
2019-02-17T01:13:26.127Z,1018.94
2019-02-17T01:14:26.106Z,1018.95
2019-02-17T01:15:26.080Z,1018.96
2019-02-17T01:16:26.050Z,1018.95
2019-02-17T01:17:26.024Z,1018.94
2019-02-17T01:18:26.009Z,1018.95
2019-02-17T01:19:25.976Z,1018.89
2019-02-17T01:20:25.953Z,1018.93
2019-02-17T01:21:25.929Z,1018.96
2019-02-17T01:22:25.918Z,1018.93
2019-02-17T01:23:25.895Z,1018.91
2019-02-17T01:24:25.858Z,1018.86
2019-02-17T01:25:25.841Z,1018.87
2019-02-17T01:26:25.807Z,1018.90
2019-02-17T01:27:25.803Z,1018.85
2019-02-17T01:28:25.867Z,1018.85
2019-02-17T01:29:25.734Z,1018.83
2019-02-17T01:30:25.708Z,1018.80
2019-02-17T01:31:25.686Z,1018.81
2019-02-17T01:32:25.659Z,1018.77
2019-02-17T01:33:25.637Z,1018.76
2019-02-17T01:34:25.644Z,1018.72
2019-02-17T01:35:25.588Z,1018.70
2019-02-17T01:36:25.565Z,1018.75
2019-02-17T01:37:25.538Z,1018.73
2019-02-17T01:38:25.525Z,1018.70
2019-02-17T01:39:25.490Z,1018.71
2019-02-17T01:40:25.466Z,1018.67
2019-02-17T01:41:25.442Z,1018.72
2019-02-17T01:42:25.416Z,1018.66
2019-02-17T01:43:25.394Z,1018.65
2019-02-17T01:44:25.370Z,1018.64
2019-02-17T01:45:25.348Z,1018.67
2019-02-17T01:46:25.320Z,1018.64
2019-02-17T01:47:25.299Z,1018.64
2019-02-17T01:48:25.272Z,1018.64
2019-02-17T01:49:25.246Z,1018.61
2019-02-17T01:50:25.223Z,1018.60
2019-02-17T01:51:25.198Z,1018.61
2019-02-17T01:52:25.174Z,1018.58
2019-02-17T01:53:25.151Z,1018.56
2019-02-17T01:54:25.126Z,1018.57
2019-02-17T01:55:25.100Z,1018.57
2019-02-17T01:56:25.077Z,1018.53
2019-02-17T01:57:25.058Z,1018.52
2019-02-17T01:58:25.036Z,1018.53
2019-02-17T01:59:30.538Z,1018.51
2019-02-17T02:00:24.980Z,1018.51
2019-02-17T02:01:24.954Z,1018.47
2019-02-17T02:02:24.930Z,1018.55
2019-02-17T02:03:24.907Z,1018.54
2019-02-17T02:04:24.883Z,1018.60
2019-02-17T02:05:24.858Z,1018.60
2019-02-17T02:06:24.832Z,1018.62
2019-02-17T02:07:24.809Z,1018.59
2019-02-17T02:08:24.786Z,1018.64
2019-02-17T02:09:24.759Z,1018.64
2019-02-17T02:10:24.747Z,1018.58
2019-02-17T02:11:24.718Z,1018.58
2019-02-17T02:12:24.691Z,1018.55
2019-02-17T02:13:24.676Z,1018.55
2019-02-17T02:14:24.645Z,1018.55
2019-02-17T02:15:24.613Z,1018.51
2019-02-17T02:16:24.589Z,1018.55
2019-02-17T02:17:24.563Z,1018.49
2019-02-17T02:18:24.546Z,1018.50
2019-02-17T02:19:24.525Z,1018.49
2019-02-17T02:20:24.496Z,1018.52
2019-02-17T02:21:24.482Z,1018.49
2019-02-17T02:22:24.441Z,1018.46
2019-02-17T02:23:24.419Z,1018.46
2019-02-17T02:24:24.393Z,1018.45
2019-02-17T02:25:24.377Z,1018.43
2019-02-17T02:26:24.346Z,1018.46
2019-02-17T02:27:24.319Z,1018.41
2019-02-17T02:28:24.298Z,1018.46
2019-02-17T02:29:24.270Z,1018.44
2019-02-17T02:30:24.245Z,1018.40
2019-02-17T02:31:24.224Z,1018.35
2019-02-17T02:32:24.200Z,1018.36
2019-02-17T02:33:24.174Z,1018.36
2019-02-17T02:34:24.146Z,1018.39
2019-02-17T02:35:24.133Z,1018.38
2019-02-17T02:36:24.101Z,1018.38
2019-02-17T02:37:24.081Z,1018.37
2019-02-17T02:38:24.050Z,1018.34
2019-02-17T02:39:24.034Z,1018.36
2019-02-17T02:40:24.004Z,1018.31
2019-02-17T02:41:33.872Z,1018.27
2019-02-17T02:42:23.952Z,1018.29
2019-02-17T02:43:23.930Z,1018.27
2019-02-17T02:44:23.903Z,1018.26
2019-02-17T02:45:23.887Z,1018.29
2019-02-17T02:46:23.854Z,1018.27
2019-02-17T02:47:23.829Z,1018.29
2019-02-17T02:48:23.805Z,1018.29
2019-02-17T02:49:23.780Z,1018.31
2019-02-17T02:50:23.771Z,1018.26
2019-02-17T02:51:23.733Z,1018.25
2019-02-17T02:52:23.718Z,1018.30
2019-02-17T02:53:23.689Z,1018.28
2019-02-17T02:54:23.657Z,1018.28
2019-02-17T02:55:23.641Z,1018.26
2019-02-17T02:56:23.608Z,1018.29
2019-02-17T02:57:23.583Z,1018.30
2019-02-17T02:58:23.578Z,1018.29
2019-02-17T02:59:23.535Z,1018.32
2019-02-17T03:00:23.511Z,1018.28
2019-02-17T03:01:23.485Z,1018.31
2019-02-17T03:02:23.470Z,1018.35
2019-02-17T03:03:23.437Z,1018.32
2019-02-17T03:04:23.412Z,1018.31
2019-02-17T03:05:23.401Z,1018.34
2019-02-17T03:06:23.370Z,1018.35
2019-02-17T03:07:23.338Z,1018.35
2019-02-17T03:08:23.312Z,1018.34
2019-02-17T03:09:23.291Z,1018.33
2019-02-17T03:10:23.266Z,1018.35
2019-02-17T03:11:23.240Z,1018.34
2019-02-17T03:12:23.215Z,1018.33
2019-02-17T03:13:23.189Z,1018.33
2019-02-17T03:14:23.194Z,1018.34
2019-02-17T03:15:23.142Z,1018.37
2019-02-17T03:16:23.115Z,1018.34
2019-02-17T03:17:23.100Z,1018.33
2019-02-17T03:18:23.065Z,1018.36
2019-02-17T03:19:23.050Z,1018.35
2019-02-17T03:20:23.026Z,1018.31
2019-02-17T03:21:23.002Z,1018.30
2019-02-17T03:22:22.966Z,1018.28
2019-02-17T03:23:22.958Z,1018.29
2019-02-17T03:24:22.918Z,1018.29
2019-02-17T03:25:22.892Z,1018.30
2019-02-17T03:26:22.877Z,1018.26
2019-02-17T03:27:22.942Z,1018.24
2019-02-17T03:28:22.816Z,1018.21
2019-02-17T03:29:22.793Z,1018.24
2019-02-17T03:30:22.868Z,1018.24
2019-02-17T03:31:22.747Z,1018.26
2019-02-17T03:32:22.724Z,1018.21
2019-02-17T03:33:22.702Z,1018.24
2019-02-17T03:34:22.681Z,1018.21
2019-02-17T03:35:22.645Z,1018.18
2019-02-17T03:36:22.620Z,1018.21
2019-02-17T03:37:22.594Z,1018.19
2019-02-17T03:38:22.575Z,1018.20
2019-02-17T03:39:22.542Z,1018.17
2019-02-17T03:40:22.516Z,1018.16
2019-02-17T03:41:22.491Z,1018.15
2019-02-17T03:42:22.467Z,1018.14
2019-02-17T03:43:22.444Z,1018.12
2019-02-17T03:44:22.423Z,1018.10
2019-02-17T03:45:22.394Z,1018.10
2019-02-17T03:46:22.367Z,1018.07
2019-02-17T03:47:22.341Z,1018.08
2019-02-17T03:48:22.318Z,1018.10
2019-02-17T03:49:22.296Z,1018.12
2019-02-17T03:50:22.267Z,1018.05
2019-02-17T03:51:22.272Z,1018.10
2019-02-17T03:52:22.217Z,1018.09
2019-02-17T03:53:22.196Z,1018.07
2019-02-17T03:54:22.166Z,1018.06
2019-02-17T03:55:22.146Z,1018.06
2019-02-17T03:56:22.120Z,1018.08
2019-02-17T03:57:22.093Z,1018.05
2019-02-17T03:58:22.069Z,1018.06
2019-02-17T03:59:22.041Z,1018.01
2019-02-17T04:00:22.018Z,1018.01
2019-02-17T04:01:21.990Z,1018.03
2019-02-17T04:02:21.968Z,1018.03
2019-02-17T04:03:21.990Z,1018.01
2019-02-17T04:04:21.927Z,1018.02
2019-02-17T04:05:21.890Z,1018.04
2019-02-17T04:06:21.965Z,1018.03
2019-02-17T04:07:21.841Z,1018.00
2019-02-17T04:08:21.816Z,1017.98
2019-02-17T04:09:21.790Z,1017.94
2019-02-17T04:10:21.765Z,1017.94
2019-02-17T04:11:21.739Z,1017.95
2019-02-17T04:12:21.716Z,1017.93
2019-02-17T04:13:21.689Z,1017.90
2019-02-17T04:14:21.667Z,1017.91
2019-02-17T04:15:21.650Z,1017.89
2019-02-17T04:16:21.612Z,1017.91
2019-02-17T04:17:21.588Z,1017.89
2019-02-17T04:18:21.566Z,1017.91
2019-02-17T04:19:21.536Z,1017.86
2019-02-17T04:20:21.513Z,1017.89
2019-02-17T04:21:21.499Z,1017.87
2019-02-17T04:22:21.463Z,1017.88
2019-02-17T04:23:30.768Z,1017.87
2019-02-17T04:24:21.413Z,1017.88
2019-02-17T04:25:21.394Z,1017.85
2019-02-17T04:26:21.362Z,1017.84
2019-02-17T04:27:21.335Z,1017.87
2019-02-17T04:28:21.311Z,1017.89
2019-02-17T04:29:21.285Z,1017.81
2019-02-17T04:30:29.228Z,1017.83
2019-02-17T04:31:21.234Z,1017.84
2019-02-17T04:32:21.210Z,1017.84
2019-02-17T04:33:21.185Z,1017.85
2019-02-17T04:34:21.158Z,1017.86
2019-02-17T04:35:21.132Z,1017.85
2019-02-17T04:36:21.109Z,1017.87
2019-02-17T04:37:21.086Z,1017.87
2019-02-17T04:38:21.057Z,1017.83
2019-02-17T04:39:21.034Z,1017.86
2019-02-17T04:40:21.007Z,1017.84
2019-02-17T04:41:20.981Z,1017.82
2019-02-17T04:42:20.960Z,1017.82
2019-02-17T04:43:20.941Z,1017.82
2019-02-17T04:44:20.908Z,1017.82
2019-02-17T04:45:20.878Z,1017.82
2019-02-17T04:46:20.855Z,1017.75
2019-02-17T04:47:20.829Z,1017.71
2019-02-17T04:48:20.814Z,1017.75
2019-02-17T04:49:20.782Z,1017.68
2019-02-17T04:50:20.758Z,1017.72
2019-02-17T04:51:20.733Z,1017.69
2019-02-17T04:52:20.712Z,1017.72
2019-02-17T04:53:20.680Z,1017.70
2019-02-17T04:54:20.659Z,1017.71
2019-02-17T04:55:20.639Z,1017.71
2019-02-17T04:56:20.608Z,1017.67
2019-02-17T04:57:20.579Z,1017.68
2019-02-17T04:58:20.552Z,1017.66
2019-02-17T04:59:20.527Z,1017.63
2019-02-17T05:00:20.513Z,1017.65
2019-02-17T05:01:20.499Z,1017.63
2019-02-17T05:02:20.448Z,1017.62
2019-02-17T05:03:20.425Z,1017.63
2019-02-17T05:04:20.403Z,1017.60
2019-02-17T05:05:20.372Z,1017.61
2019-02-17T05:06:20.356Z,1017.61
2019-02-17T05:07:20.323Z,1017.61
2019-02-17T05:08:20.300Z,1017.61
2019-02-17T05:09:20.274Z,1017.59
2019-02-17T05:10:20.251Z,1017.63
2019-02-17T05:11:20.222Z,1017.60
2019-02-17T05:12:20.198Z,1017.60
2019-02-17T05:13:20.171Z,1017.54
2019-02-17T05:14:20.146Z,1017.54
2019-02-17T05:15:20.128Z,1017.56
2019-02-17T05:16:20.119Z,1017.57
2019-02-17T05:17:20.069Z,1017.56
2019-02-17T05:18:20.052Z,1017.61
2019-02-17T05:19:20.020Z,1017.58
2019-02-17T05:20:19.994Z,1017.56
2019-02-17T05:21:20.118Z,1017.58
2019-02-17T05:22:19.951Z,1017.59
2019-02-17T05:23:19.922Z,1017.55
2019-02-17T05:24:19.893Z,1017.57
2019-02-17T05:25:19.885Z,1017.54
2019-02-17T05:26:19.843Z,1017.58
2019-02-17T05:27:19.878Z,1017.51
2019-02-17T05:28:19.793Z,1017.48
2019-02-17T05:29:19.769Z,1017.55
2019-02-17T05:30:19.747Z,1017.46
2019-02-17T05:31:19.717Z,1017.44
2019-02-17T05:32:19.696Z,1017.45
2019-02-17T05:33:19.664Z,1017.43
2019-02-17T05:34:19.640Z,1017.44
2019-02-17T05:35:19.624Z,1017.40
2019-02-17T05:36:19.589Z,1017.38
2019-02-17T05:37:19.563Z,1017.38
2019-02-17T05:38:19.539Z,1017.41
2019-02-17T05:39:19.514Z,1017.38
2019-02-17T05:40:19.496Z,1017.40
2019-02-17T05:41:19.463Z,1017.40
2019-02-17T05:42:19.451Z,1017.36
2019-02-17T05:43:19.432Z,1017.37
2019-02-17T05:44:19.387Z,1017.36
2019-02-17T05:45:19.359Z,1017.35
2019-02-17T05:46:19.335Z,1017.33
2019-02-17T05:47:19.318Z,1017.32
2019-02-17T05:48:19.284Z,1017.32
2019-02-17T05:49:19.362Z,1017.33
2019-02-17T05:50:19.234Z,1017.32
2019-02-17T05:51:19.207Z,1017.37
2019-02-17T05:52:19.183Z,1017.37
2019-02-17T05:53:19.167Z,1017.36
2019-02-17T05:54:19.146Z,1017.34
2019-02-17T05:55:19.107Z,1017.32
2019-02-17T05:56:19.082Z,1017.31
2019-02-17T05:57:19.055Z,1017.29
2019-02-17T05:58:19.033Z,1017.32
2019-02-17T05:59:19.010Z,1017.37
2019-02-17T06:00:18.981Z,1017.34
2019-02-17T06:01:18.955Z,1017.33
2019-02-17T06:02:18.937Z,1017.30
2019-02-17T06:03:18.903Z,1017.27
2019-02-17T06:04:18.878Z,1017.26
2019-02-17T06:05:18.850Z,1017.29
2019-02-17T06:06:18.827Z,1017.28
2019-02-17T06:07:18.801Z,1017.26
2019-02-17T06:08:18.776Z,1017.30
2019-02-17T06:09:18.751Z,1017.32
2019-02-17T06:10:18.736Z,1017.30
2019-02-17T06:11:18.702Z,1017.28
2019-02-17T06:12:18.794Z,1017.30
2019-02-17T06:13:18.658Z,1017.31
2019-02-17T06:14:18.636Z,1017.30
2019-02-17T06:15:18.600Z,1017.29
2019-02-17T06:16:18.573Z,1017.33
2019-02-17T06:17:18.562Z,1017.32
2019-02-17T06:18:18.520Z,1017.31
2019-02-17T06:19:18.501Z,1017.34
2019-02-17T06:20:18.480Z,1017.28
2019-02-17T06:21:18.452Z,1017.25
2019-02-17T06:22:18.418Z,1017.24
2019-02-17T06:23:18.395Z,1017.24
2019-02-17T06:24:18.369Z,1017.25
2019-02-17T06:25:18.344Z,1017.24
2019-02-17T06:26:18.319Z,1017.23
2019-02-17T06:27:18.297Z,1017.24
2019-02-17T06:28:18.268Z,1017.25
2019-02-17T06:29:18.247Z,1017.25
2019-02-17T06:30:18.216Z,1017.24
2019-02-17T06:31:18.192Z,1017.26
2019-02-17T06:32:18.166Z,1017.26
2019-02-17T06:33:18.139Z,1017.25
2019-02-17T06:34:18.112Z,1017.27
2019-02-17T06:35:18.101Z,1017.28
2019-02-17T06:36:18.061Z,1017.30
2019-02-17T06:37:18.054Z,1017.28
2019-02-17T06:38:18.027Z,1017.31
2019-02-17T06:39:17.985Z,1017.32
2019-02-17T06:40:17.960Z,1017.31
2019-02-17T06:41:17.932Z,1017.34
2019-02-17T06:42:17.908Z,1017.29
2019-02-17T06:43:17.891Z,1017.33
2019-02-17T06:44:17.858Z,1017.32
2019-02-17T06:45:19.769Z,1017.33
2019-02-17T06:46:17.817Z,1017.31
2019-02-17T06:47:17.787Z,1017.33
2019-02-17T06:48:17.761Z,1017.33
2019-02-17T06:49:17.726Z,1017.35
2019-02-17T06:50:17.709Z,1017.39
2019-02-17T06:51:17.687Z,1017.39
2019-02-17T06:52:17.651Z,1017.40
2019-02-17T06:53:17.626Z,1017.38
2019-02-17T06:54:17.600Z,1017.37
2019-02-17T06:55:17.576Z,1017.36
2019-02-17T06:56:17.549Z,1017.35
2019-02-17T06:57:17.526Z,1017.38
2019-02-17T06:58:17.497Z,1017.42
2019-02-17T06:59:17.472Z,1017.40
2019-02-17T07:00:17.458Z,1017.45
2019-02-17T07:01:24.477Z,1017.47
2019-02-17T07:02:17.399Z,1017.47
2019-02-17T07:03:17.369Z,1017.45
2019-02-17T07:04:17.369Z,1017.47
2019-02-17T07:05:17.331Z,1017.49
2019-02-17T07:06:17.301Z,1017.45
2019-02-17T07:07:17.268Z,1017.46
2019-02-17T07:08:17.240Z,1017.47
2019-02-17T07:09:17.214Z,1017.45
2019-02-17T07:10:17.188Z,1017.48
2019-02-17T07:11:17.163Z,1017.49
2019-02-17T07:12:17.143Z,1017.44
2019-02-17T07:13:17.109Z,1017.45
2019-02-17T07:14:17.085Z,1017.47
2019-02-17T07:15:17.068Z,1017.53
2019-02-17T07:16:17.037Z,1017.46
2019-02-17T07:17:17.019Z,1017.47
2019-02-17T07:18:16.984Z,1017.46
2019-02-17T07:19:16.956Z,1017.52
2019-02-17T07:20:16.942Z,1017.48
2019-02-17T07:21:16.907Z,1017.47
2019-02-17T07:22:16.881Z,1017.46
2019-02-17T07:23:16.855Z,1017.39
2019-02-17T07:24:16.829Z,1017.41
2019-02-17T07:25:16.809Z,1017.40
2019-02-17T07:26:17.378Z,1017.40
2019-02-17T07:27:16.756Z,1017.41
2019-02-17T07:28:16.728Z,1017.40
2019-02-17T07:29:16.969Z,1017.41
2019-02-17T07:30:16.690Z,1017.43
2019-02-17T07:31:16.650Z,1017.39
2019-02-17T07:32:16.624Z,1017.40
2019-02-17T07:33:16.605Z,1017.42
2019-02-17T07:34:16.583Z,1017.44
2019-02-17T07:35:16.547Z,1017.43
2019-02-17T07:36:16.529Z,1017.44
2019-02-17T07:37:16.498Z,1017.47
2019-02-17T07:38:16.472Z,1017.45
2019-02-17T07:39:16.445Z,1017.46
2019-02-17T07:40:16.424Z,1017.44
2019-02-17T07:41:16.394Z,1017.41
2019-02-17T07:42:16.377Z,1017.42
2019-02-17T07:43:16.344Z,1017.41
2019-02-17T07:44:16.323Z,1017.43
2019-02-17T07:45:16.294Z,1017.43
2019-02-17T07:46:16.276Z,1017.44
2019-02-17T07:47:18.012Z,1017.41
2019-02-17T07:48:16.217Z,1017.40
2019-02-17T07:49:16.192Z,1017.42
2019-02-17T07:50:16.172Z,1017.42
2019-02-17T07:51:16.141Z,1017.41
2019-02-17T07:52:16.118Z,1017.38
2019-02-17T07:53:16.089Z,1017.38
2019-02-17T07:54:16.064Z,1017.35
2019-02-17T07:55:16.038Z,1017.35
2019-02-17T07:56:16.012Z,1017.34
2019-02-17T07:57:15.987Z,1017.34
2019-02-17T07:58:15.978Z,1017.34
2019-02-17T07:59:15.939Z,1017.34
2019-02-17T08:00:15.913Z,1017.34
2019-02-17T08:01:15.885Z,1017.37
2019-02-17T08:02:15.866Z,1017.33
2019-02-17T08:03:15.835Z,1017.28
2019-02-17T08:04:15.812Z,1017.28
2019-02-17T08:05:15.795Z,1017.27
2019-02-17T08:06:15.758Z,1017.29
2019-02-17T08:07:15.741Z,1017.27
2019-02-17T08:08:15.717Z,1017.32
2019-02-17T08:09:15.685Z,1017.33
2019-02-17T08:10:15.661Z,1017.33
2019-02-17T08:11:15.635Z,1017.33
2019-02-17T08:12:15.621Z,1017.36
2019-02-17T08:13:15.586Z,1017.36
2019-02-17T08:14:15.571Z,1017.39
2019-02-17T08:15:15.537Z,1017.34
2019-02-17T08:16:15.511Z,1017.37
2019-02-17T08:17:15.486Z,1017.33
2019-02-17T08:18:15.460Z,1017.34
2019-02-17T08:19:15.436Z,1017.36
2019-02-17T08:20:15.421Z,1017.35
2019-02-17T08:21:15.386Z,1017.35
2019-02-17T08:22:15.366Z,1017.35
2019-02-17T08:23:15.339Z,1017.36
2019-02-17T08:24:15.312Z,1017.36
2019-02-17T08:25:21.890Z,1017.38
2019-02-17T08:26:15.262Z,1017.37
2019-02-17T08:27:15.263Z,1017.35
2019-02-17T08:28:15.222Z,1017.38
2019-02-17T08:29:15.189Z,1017.32
2019-02-17T08:30:15.172Z,1017.36
2019-02-17T08:31:15.150Z,1017.36
2019-02-17T08:32:15.123Z,1017.34
2019-02-17T08:33:15.094Z,1017.36
2019-02-17T08:34:15.068Z,1017.35
2019-02-17T08:35:15.042Z,1017.36
2019-02-17T08:36:15.030Z,1017.35
2019-02-17T08:37:14.994Z,1017.34
2019-02-17T08:38:14.983Z,1017.34
2019-02-17T08:39:14.948Z,1017.30
2019-02-17T08:40:14.921Z,1017.32
2019-02-17T08:41:14.910Z,1017.34
2019-02-17T08:42:14.870Z,1017.28
2019-02-17T08:43:14.846Z,1017.26
2019-02-17T08:44:14.836Z,1017.31
2019-02-17T08:45:14.810Z,1017.26
2019-02-17T08:46:14.844Z,1017.30
2019-02-17T08:47:14.767Z,1017.27
2019-02-17T08:48:14.724Z,1017.29
2019-02-17T08:49:14.703Z,1017.26
2019-02-17T08:50:14.675Z,1017.26
2019-02-17T08:51:14.652Z,1017.23
2019-02-17T08:52:14.651Z,1017.25
2019-02-17T08:53:14.603Z,1017.25
2019-02-17T08:54:14.585Z,1017.26
2019-02-17T08:55:14.569Z,1017.26
2019-02-17T08:56:14.538Z,1017.28
2019-02-17T08:57:14.512Z,1017.26
2019-02-17T08:58:14.482Z,1017.27
2019-02-17T08:59:14.457Z,1017.29
2019-02-17T09:00:14.435Z,1017.27
2019-02-17T09:01:14.410Z,1017.25
2019-02-17T09:02:14.392Z,1017.27
2019-02-17T09:03:14.541Z,1017.26
2019-02-17T09:04:14.339Z,1017.28
2019-02-17T09:05:14.318Z,1017.25
2019-02-17T09:06:14.291Z,1017.20
2019-02-17T09:07:14.266Z,1017.25
2019-02-17T09:08:14.241Z,1017.21
2019-02-17T09:09:14.282Z,1017.23
2019-02-17T09:10:14.194Z,1017.27
2019-02-17T09:11:14.198Z,1017.21
2019-02-17T09:12:14.147Z,1017.22
2019-02-17T09:13:14.130Z,1017.19
2019-02-17T09:14:14.106Z,1017.20
2019-02-17T09:15:14.075Z,1017.17
2019-02-17T09:16:14.056Z,1017.12
2019-02-17T09:17:14.063Z,1017.15
2019-02-17T09:18:14.011Z,1017.12
2019-02-17T09:19:13.982Z,1017.17
2019-02-17T09:20:13.955Z,1017.11
2019-02-17T09:21:13.930Z,1017.09
2019-02-17T09:23:03.031Z,1017.14
2019-02-17T09:24:03.010Z,1017.22
2019-02-17T09:25:02.988Z,1017.31
2019-02-17T09:26:02.964Z,1017.30
2019-02-17T09:27:02.937Z,1017.14
2019-02-17T09:28:02.924Z,1017.08
2019-02-17T09:29:02.902Z,1017.00
2019-02-17T09:30:02.873Z,1017.01
2019-02-17T09:31:02.845Z,1016.98
2019-02-17T09:32:02.832Z,1016.96
2019-02-17T09:33:02.802Z,1017.02
2019-02-17T09:34:02.789Z,1017.15
2019-02-17T09:35:02.751Z,1017.15
2019-02-17T09:36:02.727Z,1017.15
2019-02-17T09:37:02.712Z,1017.19
2019-02-17T09:38:02.690Z,1017.24
2019-02-17T09:39:02.659Z,1017.22
2019-02-17T09:40:02.644Z,1017.23
2019-02-17T09:41:02.620Z,1017.17
2019-02-17T09:42:02.593Z,1017.16
2019-02-17T09:43:02.570Z,1017.19
2019-02-17T09:44:02.558Z,1017.13
2019-02-17T09:45:02.530Z,1017.06
2019-02-17T09:46:02.524Z,1017.12
2019-02-17T09:47:02.495Z,1017.07
2019-02-17T09:48:02.478Z,1017.04
2019-02-17T09:49:02.459Z,1017.06
2019-02-17T09:50:02.427Z,1017.06
2019-02-17T09:51:02.409Z,1017.10
2019-02-17T09:52:02.384Z,1017.11
2019-02-17T09:53:02.371Z,1017.08
2019-02-17T09:54:02.347Z,1017.12
2019-02-17T09:55:02.346Z,1017.05
2019-02-17T09:56:02.311Z,1017.08
2019-02-17T09:57:02.285Z,1017.06
2019-02-17T09:58:02.265Z,1017.05
2019-02-17T09:59:02.260Z,1017.03
2019-02-17T10:00:02.248Z,1017.07
2019-02-17T10:01:02.207Z,1017.04
2019-02-17T10:02:02.187Z,1017.01
2019-02-17T10:03:02.168Z,1017.04
2019-02-17T10:04:02.150Z,1017.04
2019-02-17T10:05:02.131Z,1017.01
2019-02-17T10:06:02.118Z,1017.02
2019-02-17T10:07:02.091Z,1017.00
2019-02-17T10:08:02.072Z,1017.01
2019-02-17T10:09:02.053Z,1017.00
2019-02-17T10:10:02.044Z,1017.03
2019-02-17T10:11:02.024Z,1017.01
2019-02-17T10:12:01.996Z,1017.02
2019-02-17T10:13:01.987Z,1017.04
2019-02-17T10:14:01.960Z,1017.04
2019-02-17T10:15:01.951Z,1016.99
2019-02-17T10:16:01.933Z,1017.01
2019-02-17T10:17:01.905Z,1016.98
2019-02-17T10:18:01.895Z,1016.96
2019-02-17T10:19:01.877Z,1016.95
2019-02-17T10:20:01.864Z,1016.89
2019-02-17T10:21:01.836Z,1016.94
2019-02-17T10:22:01.819Z,1016.89
2019-02-17T10:23:01.811Z,1016.89
2019-02-17T10:24:01.802Z,1016.87
2019-02-17T10:25:01.781Z,1016.90
2019-02-17T10:26:01.761Z,1016.88
2019-02-17T10:27:01.730Z,1016.86
2019-02-17T10:28:01.722Z,1016.84
2019-02-17T10:29:01.700Z,1016.81
2019-02-17T10:30:01.697Z,1016.85
2019-02-17T10:31:01.672Z,1016.82
2019-02-17T10:32:01.658Z,1016.84
2019-02-17T10:33:01.631Z,1016.80
2019-02-17T10:34:01.630Z,1016.82
2019-02-17T10:35:01.598Z,1016.78
2019-02-17T10:36:01.580Z,1016.76
2019-02-17T10:37:01.584Z,1016.78
2019-02-17T10:38:01.548Z,1016.74
2019-02-17T10:39:01.538Z,1016.77
2019-02-17T10:40:01.519Z,1016.77
2019-02-17T10:41:01.500Z,1016.73
2019-02-17T10:42:01.484Z,1016.71
2019-02-17T10:43:03.572Z,1016.70
2019-02-17T10:44:01.462Z,1016.66
2019-02-17T10:45:01.448Z,1016.66
2019-02-17T10:46:01.438Z,1016.66
2019-02-17T10:47:01.405Z,1016.68
2019-02-17T10:48:01.394Z,1016.67
2019-02-17T10:49:01.382Z,1016.64
2019-02-17T10:50:01.358Z,1016.68
2019-02-17T10:51:01.350Z,1016.64
2019-02-17T10:52:01.334Z,1016.63
2019-02-17T10:53:01.312Z,1016.61
2019-02-17T10:54:01.300Z,1016.61
2019-02-17T10:55:01.279Z,1016.62
2019-02-17T10:56:01.263Z,1016.59
2019-02-17T10:57:01.265Z,1016.60
2019-02-17T10:58:01.243Z,1016.64
2019-02-17T10:59:01.216Z,1016.65
2019-02-17T11:00:01.214Z,1016.61
2019-02-17T11:01:01.195Z,1016.56
2019-02-17T11:02:01.177Z,1016.59
2019-02-17T11:03:01.155Z,1016.55
2019-02-17T11:04:01.137Z,1016.53
2019-02-17T11:05:01.136Z,1016.51
2019-02-17T11:06:01.121Z,1016.56
2019-02-17T11:07:01.096Z,1016.52
2019-02-17T11:08:01.076Z,1016.49
2019-02-17T11:09:01.067Z,1016.49
2019-02-17T11:10:01.048Z,1016.49
2019-02-17T11:11:01.029Z,1016.45
2019-02-17T11:12:01.021Z,1016.49
2019-02-17T11:13:00.998Z,1016.43
2019-02-17T11:14:00.982Z,1016.41
2019-02-17T11:15:00.967Z,1016.35
2019-02-17T11:16:00.951Z,1016.38
2019-02-17T11:17:00.951Z,1016.33
2019-02-17T11:18:00.920Z,1016.34
2019-02-17T11:19:00.911Z,1016.34
2019-02-17T11:20:00.886Z,1016.28
2019-02-17T11:21:00.882Z,1016.26
2019-02-17T11:22:00.856Z,1016.26
2019-02-17T11:23:00.840Z,1016.26
2019-02-17T11:24:00.823Z,1016.26
2019-02-17T11:25:00.813Z,1016.25
2019-02-17T11:26:00.800Z,1016.24
2019-02-17T11:27:00.777Z,1016.24
2019-02-17T11:28:00.762Z,1016.19
2019-02-17T11:29:00.851Z,1016.22
2019-02-17T11:30:00.737Z,1016.18
2019-02-17T11:31:00.731Z,1016.13
2019-02-17T11:32:00.713Z,1016.12
2019-02-17T11:33:00.684Z,1016.11
2019-02-17T11:34:00.677Z,1016.07
2019-02-17T11:35:00.677Z,1016.09
2019-02-17T11:36:00.638Z,1016.12
2019-02-17T11:37:00.619Z,1016.10
2019-02-17T11:38:00.607Z,1016.02
2019-02-17T11:39:00.594Z,1016.02
2019-02-17T11:40:00.586Z,1016.01
2019-02-17T11:41:00.559Z,1015.98
2019-02-17T11:42:00.539Z,1016.01
2019-02-17T11:43:00.530Z,1015.98
2019-02-17T11:44:00.514Z,1015.95
2019-02-17T11:45:00.502Z,1015.95
2019-02-17T11:46:00.487Z,1015.96
2019-02-17T11:47:00.458Z,1015.97
2019-02-17T11:48:00.446Z,1015.98
2019-02-17T11:49:00.433Z,1015.97
2019-02-17T11:50:00.412Z,1015.93
2019-02-17T11:51:00.406Z,1015.95
2019-02-17T11:52:00.391Z,1015.90
2019-02-17T11:53:00.379Z,1015.93
2019-02-17T11:54:00.369Z,1015.92
2019-02-17T11:55:00.331Z,1015.91
2019-02-17T11:56:00.322Z,1015.90
2019-02-17T11:57:00.316Z,1015.86
2019-02-17T11:58:00.289Z,1015.84
2019-02-17T11:59:00.312Z,1015.86
2019-02-17T12:00:00.348Z,1015.86
2019-02-17T12:01:00.228Z,1015.85
2019-02-17T12:02:00.212Z,1015.85
2019-02-17T12:03:07.545Z,1015.81
2019-02-17T12:04:00.200Z,1015.77
2019-02-17T12:05:00.306Z,1015.76
2019-02-17T12:06:00.155Z,1015.72